Time;durP1;ratioP1;P1;durP2;ratioP2;P2;SDS_P1;SDS_P2;PMS_P1;PMS_P2;Temp;Humidity;BMP_temperature;BMP_pressure;BME280_temperature;BME280_humidity;BME280_pressure;Samples;Min_cycle;Max_cycle;Signal;HPM_P1;HPM_P2
2023/12/29 00:02:03;;;;;;;4.07;3.10;;;;;;;8.51;90.61;95582.97;5002483;28;20188;-78
2023/12/29 00:04:28;;;;;;;5.50;3.13;;;;;;;8.53;90.79;95588.03;4986096;28;20249;-76
2023/12/29 00:06:55;;;;;;;3.70;3.13;;;;;;;8.66;90.58;95577.44;4983248;28;20204;-77
2023/12/29 00:09:20;;;;;;;4.30;3.13;;;;;;;8.63;90.80;95575.91;4997981;28;20212;-78
2023/12/29 00:11:47;;;;;;;4.97;2.90;;;;;;;8.63;90.78;95577.69;4984229;28;20183;-77
2023/12/29 00:14:12;;;;;;;3.27;2.97;;;;;;;8.56;91.48;95582.56;4998104;28;20183;-77
2023/12/29 00:16:38;;;;;;;3.77;3.00;;;;;;;8.31;93.60;95577.88;4985213;28;20239;-77
2023/12/29 00:19:03;;;;;;;4.63;2.80;;;;;;;8.55;92.57;95580.94;4983673;28;20254;-78
2023/12/29 00:21:28;;;;;;;3.40;3.10;;;;;;;8.65;92.25;95594.69;5004985;28;20184;-78
2023/12/29 00:23:54;;;;;;;3.90;3.53;;;;;;;8.55;93.12;95591.28;4984438;28;20187;-79
2023/12/29 00:26:19;;;;;;;3.47;3.10;;;;;;;8.62;93.19;95591.56;4999408;28;20207;-79
2023/12/29 00:28:45;;;;;;;4.40;3.57;;;;;;;8.45;94.18;95591.28;4984004;28;20207;-78
2023/12/29 00:31:16;;;;;;;5.23;3.53;;;;;;;8.64;93.15;95600.03;4989756;28;20264;-78
2023/12/29 00:33:45;;;;;;;7.97;3.90;;;;;;;8.63;93.19;95604.38;4983445;28;20259;-79
2023/12/29 00:36:18;;;;;;;4.77;3.70;;;;;;;8.70;92.85;95602.91;4982533;28;20188;-78
2023/12/29 00:38:43;;;;;;;4.07;3.63;;;;;;;8.60;93.38;95593.50;4979544;28;20287;-78
2023/12/29 00:41:09;;;;;;;3.97;3.57;;;;;;;8.64;93.44;95600.84;4984598;28;20218;-77
2023/12/29 00:43:35;;;;;;;4.33;3.87;;;;;;;8.47;94.90;95599.72;4997640;28;20192;-77
2023/12/29 00:46:04;;;;;;;3.90;3.50;;;;;;;8.50;94.87;95591.72;4991761;28;20274;-79
2023/12/29 00:48:31;;;;;;;5.30;3.90;;;;;;;8.53;94.54;95590.59;4985761;28;20196;-78
2023/12/29 00:50:56;;;;;;;4.27;3.87;;;;;;;8.54;94.93;95594.84;5004214;28;20211;-78
2023/12/29 00:53:22;;;;;;;4.10;3.80;;;;;;;8.46;95.45;95590.31;5001447;28;20712;-77
2023/12/29 00:55:47;;;;;;;5.77;4.43;;;;;;;8.21;96.47;95593.34;4991569;28;20187;-79
2023/12/29 00:58:12;;;;;;;7.03;3.70;;;;;;;8.38;96.01;95589.34;5005434;28;20221;-78
2023/12/29 01:00:38;;;;;;;4.40;4.00;;;;;;;8.28;96.71;95584.13;5004555;28;20188;-78
2023/12/29 01:03:03;;;;;;;4.53;4.03;;;;;;;8.36;95.85;95580.91;5005012;28;20183;-78
2023/12/29 01:05:29;;;;;;;5.10;3.80;;;;;;;8.41;95.68;95574.38;4990564;28;20195;-77
2023/12/29 01:07:54;;;;;;;4.67;3.80;;;;;;;8.27;96.25;95572.13;5004363;28;20239;-77
2023/12/29 01:10:20;;;;;;;5.03;3.87;;;;;;;8.32;95.88;95571.75;5005168;28;20222;-77
2023/12/29 01:12:45;;;;;;;5.17;3.97;;;;;;;8.24;96.30;95572.41;5003081;28;20203;-78
2023/12/29 01:15:11;;;;;;;4.63;3.80;;;;;;;8.40;95.96;95577.94;4989390;28;20710;-77
2023/12/29 01:17:36;;;;;;;5.53;4.07;;;;;;;8.43;95.36;95588.00;5002882;28;20227;-78
2023/12/29 01:20:05;;;;;;;6.33;4.50;;;;;;;8.40;95.25;95588.28;5006285;28;20184;-77
2023/12/29 01:22:30;;;;;;;5.00;4.30;;;;;;;8.41;95.55;95578.75;5005526;28;20195;-77
2023/12/29 01:24:58;;;;;;;4.37;3.97;;;;;;;8.37;95.83;95585.94;5004296;28;20192;-78
2023/12/29 01:27:24;;;;;;;4.90;3.97;;;;;;;8.20;96.33;95565.84;5001979;28;20204;-78
2023/12/29 01:29:49;;;;;;;4.30;3.50;;;;;;;8.33;94.81;95563.84;4987068;28;20298;-78
2023/12/29 01:32:14;;;;;;;4.53;3.97;;;;;;;8.18;94.98;95563.41;4990254;28;20202;-79
2023/12/29 01:34:40;;;;;;;3.87;3.53;;;;;;;8.30;94.76;95558.94;5003781;28;20211;-77
2023/12/29 01:37:05;;;;;;;4.20;3.80;;;;;;;8.29;94.12;95559.06;5004800;28;20211;-76
2023/12/29 01:39:30;;;;;;;4.30;3.43;;;;;;;8.31;94.00;95549.44;5004608;28;20253;-78
2023/12/29 01:41:56;;;;;;;4.00;3.60;;;;;;;8.33;93.33;95545.75;4987528;28;20184;-78
2023/12/29 01:44:22;;;;;;;4.20;3.80;;;;;;;8.48;92.56;95548.78;5002555;28;20184;-78
2023/12/29 01:46:50;;;;;;;3.50;3.20;;;;;;;8.39;93.02;95554.75;5006753;28;20554;-77
2023/12/29 01:49:17;;;;;;;3.97;3.60;;;;;;;8.44;92.97;95561.16;4988863;28;20214;-78
2023/12/29 01:51:43;;;;;;;4.93;3.60;;;;;;;8.64;91.74;95564.59;4984955;28;20668;-78
2023/12/29 01:54:08;;;;;;;4.20;3.00;;;;;;;8.74;90.71;95564.59;5005872;28;20184;-79
2023/12/29 01:56:34;;;;;;;4.77;4.17;;;;;;;8.56;92.22;95564.44;5007396;28;20275;-78
2023/12/29 01:58:59;;;;;;;7.40;3.73;;;;;;;8.30;94.24;95560.69;4987453;28;20325;-78
2023/12/29 02:01:25;;;;;;;4.50;4.00;;;;;;;8.32;93.63;95572.56;5003211;28;20184;-78
2023/12/29 02:03:50;;;;;;;4.53;3.43;;;;;;;8.73;91.35;95570.72;5003616;28;20602;-77
2023/12/29 02:06:16;;;;;;;4.17;3.40;;;;;;;8.87;90.54;95572.94;5009692;28;20233;-77
2023/12/29 02:08:41;;;;;;;4.47;3.60;;;;;;;8.87;90.78;95570.34;5003840;28;20211;-79
2023/12/29 02:11:07;;;;;;;5.60;3.67;;;;;;;8.74;91.99;95565.41;5007209;28;20242;-77
2023/12/29 02:13:32;;;;;;;4.77;4.27;;;;;;;8.70;91.78;95579.59;4985197;28;20183;-78
2023/12/29 02:16:02;;;;;;;4.17;3.70;;;;;;;8.70;91.86;95574.41;5006262;28;20248;-79
2023/12/29 02:18:30;;;;;;;4.47;3.70;;;;;;;8.73;91.85;95562.97;5002117;28;20196;-78
2023/12/29 02:20:55;;;;;;;4.03;3.50;;;;;;;8.80;91.68;95564.88;5007816;28;20210;-78
2023/12/29 02:23:21;;;;;;;4.07;3.67;;;;;;;8.48;93.45;95570.31;5005311;28;20745;-78
2023/12/29 02:25:46;;;;;;;4.37;3.27;;;;;;;8.46;93.97;95561.03;5004181;28;20566;-77
2023/12/29 02:28:19;;;;;;;6.67;4.27;;;;;;;8.12;95.60;95553.56;4984884;28;20278;-78
2023/12/29 02:31:06;;;;;;;4.13;3.73;;;;;;;8.37;94.93;95552.31;5004226;28;20426;-76
2023/12/29 02:33:33;;;;;;;4.60;3.97;;;;;;;8.38;94.65;95550.53;5004272;28;20186;-78
2023/12/29 02:35:59;;;;;;;4.67;4.23;;;;;;;8.16;94.90;95544.63;5003612;28;20277;-77
2023/12/29 02:38:27;;;;;;;5.23;4.17;;;;;;;8.25;95.65;95548.19;5002434;28;20211;-77
2023/12/29 02:40:54;;;;;;;4.17;3.77;;;;;;;8.15;95.87;95549.94;5005560;28;20206;-77
2023/12/29 02:43:20;;;;;;;7.77;5.83;;;;;;;8.17;96.41;95538.50;4986490;28;20199;-78
2023/12/29 02:45:45;;;;;;;6.27;4.23;;;;;;;8.21;95.84;95537.25;5003459;28;20594;-78
2023/12/29 02:48:10;;;;;;;6.10;4.53;;;;;;;8.18;96.46;95532.38;5004112;28;20212;-77
2023/12/29 02:50:36;;;;;;;5.00;4.53;;;;;;;8.32;95.67;95525.19;5004052;28;20620;-78
2023/12/29 02:53:04;;;;;;;5.23;4.40;;;;;;;8.39;94.91;95528.88;5002112;28;20192;-77
2023/12/29 02:55:29;;;;;;;5.93;4.63;;;;;;;8.04;97.00;95525.00;5008217;28;20182;-79
2023/12/29 02:57:54;;;;;;;5.53;4.33;;;;;;;8.22;96.07;95525.16;5003480;28;20684;-78
2023/12/29 03:00:20;;;;;;;6.20;4.67;;;;;;;8.30;95.68;95529.66;5002914;28;20198;-79
2023/12/29 03:02:45;;;;;;;5.27;4.30;;;;;;;8.15;95.95;95517.13;5001775;28;20188;-78
2023/12/29 03:05:11;;;;;;;5.37;4.00;;;;;;;8.14;96.37;95520.66;5005593;28;20188;-77
2023/12/29 03:07:37;;;;;;;4.97;4.23;;;;;;;8.17;96.96;95524.75;4986449;28;20226;-78
2023/12/29 03:10:02;;;;;;;6.13;4.27;;;;;;;8.11;97.29;95526.06;5001178;28;20215;-78
2023/12/29 03:12:30;;;;;;;5.87;4.53;;;;;;;8.11;97.54;95526.06;5004008;28;20192;-77
2023/12/29 03:14:55;;;;;;;5.00;4.50;;;;;;;8.26;97.35;95525.72;5004954;28;20290;-79
2023/12/29 03:17:21;;;;;;;4.80;4.23;;;;;;;8.28;97.30;95526.38;5004244;28;21034;-77
2023/12/29 03:19:46;;;;;;;5.20;4.70;;;;;;;8.09;98.64;95517.66;5005347;28;20195;-78
2023/12/29 03:22:11;;;;;;;5.70;4.37;;;;;;;8.13;98.83;95513.84;5006592;28;20673;-78
2023/12/29 03:24:39;;;;;;;5.60;5.10;;;;;;;8.17;98.44;95517.78;5003263;28;20191;-79
2023/12/29 03:27:04;;;;;;;6.40;4.70;;;;;;;8.11;98.48;95509.75;5002227;28;20215;-78
2023/12/29 03:29:29;;;;;;;5.33;4.50;;;;;;;7.97;99.56;95518.72;4988261;28;20270;-77
2023/12/29 03:31:55;;;;;;;5.27;4.73;;;;;;;7.88;100.00;95519.50;5006298;28;20200;-78
2023/12/29 03:34:20;;;;;;;5.33;4.73;;;;;;;8.00;99.82;95528.78;5003394;28;20202;-78
2023/12/29 03:36:45;;;;;;;4.60;4.20;;;;;;;7.90;99.94;95527.94;4986537;28;20216;-78
2023/12/29 03:39:11;;;;;;;5.37;4.87;;;;;;;8.02;98.96;95511.34;4988610;28;20207;-77
2023/12/29 03:41:36;;;;;;;5.47;3.93;;;;;;;8.20;97.91;95517.53;5005387;28;20733;-78
2023/12/29 03:44:03;;;;;;;4.73;4.23;;;;;;;8.03;97.95;95515.56;4999676;28;20215;-78
2023/12/29 03:46:28;;;;;;;4.33;4.00;;;;;;;8.03;98.70;95507.00;5005216;28;20204;-77
2023/12/29 03:48:53;;;;;;;5.77;4.40;;;;;;;8.08;98.78;95508.25;4985716;28;20249;-78
2023/12/29 03:51:19;;;;;;;4.90;4.50;;;;;;;7.84;100.00;95507.78;5004017;28;20187;-77
2023/12/29 03:53:44;;;;;;;4.77;4.27;;;;;;;8.12;98.42;95496.69;5000408;28;20661;-78
2023/12/29 03:56:16;;;;;;;5.90;4.57;;;;;;;7.98;99.91;95506.59;5008449;28;20207;-78
2023/12/29 03:58:41;;;;;;;5.80;4.33;;;;;;;8.12;98.99;95501.84;4982571;28;20286;-78
2023/12/29 04:01:14;;;;;;;5.47;4.93;;;;;;;8.10;99.08;95502.94;4986008;28;20219;-79
2023/12/29 04:03:40;;;;;;;8.93;4.60;;;;;;;7.91;99.62;95499.38;5001291;28;20187;-78
2023/12/29 04:06:06;;;;;;;4.77;4.23;;;;;;;8.07;99.14;95488.50;4991071;28;20184;-78
2023/12/29 04:08:31;;;;;;;5.70;4.27;;;;;;;8.01;98.81;95493.41;5002536;28;20183;-77
2023/12/29 04:10:57;;;;;;;5.93;4.07;;;;;;;7.86;100.00;95488.63;4999574;28;20195;-79
2023/12/29 04:13:22;;;;;;;5.63;4.17;;;;;;;8.07;99.09;95492.88;5004199;28;20184;-78
2023/12/29 04:15:47;;;;;;;5.40;4.17;;;;;;;7.96;99.65;95493.81;5005723;28;20488;-77
2023/12/29 04:18:13;;;;;;;4.60;4.17;;;;;;;8.19;98.44;95487.44;4986705;28;20278;-77
2023/12/29 04:20:38;;;;;;;4.93;3.90;;;;;;;8.01;99.44;95496.78;5012381;28;20187;-77
2023/12/29 04:23:06;;;;;;;3.90;3.60;;;;;;;8.03;99.41;95489.72;5010794;28;20190;-78
2023/12/29 04:25:31;;;;;;;4.60;4.20;;;;;;;8.01;99.27;95486.44;5010348;28;20186;-78
2023/12/29 04:27:56;;;;;;;4.13;3.80;;;;;;;7.91;100.00;95491.59;5008094;28;20204;-77
2023/12/29 04:30:22;;;;;;;4.20;3.80;;;;;;;7.90;100.00;95491.75;5013864;28;20206;-79
2023/12/29 04:32:47;;;;;;;4.03;3.63;;;;;;;8.11;99.14;95492.44;5010662;28;20195;-78
2023/12/29 04:35:14;;;;;;;4.03;3.63;;;;;;;8.11;99.17;95483.88;4993114;28;20183;-78
2023/12/29 04:37:40;;;;;;;5.37;3.53;;;;;;;8.07;99.87;95485.94;5007928;28;20200;-78
2023/12/29 04:40:06;;;;;;;3.70;3.40;;;;;;;8.11;99.39;95491.63;5008408;28;20192;-79
2023/12/29 04:42:31;;;;;;;4.20;3.80;;;;;;;8.22;98.84;95494.13;5008194;28;20680;-78
2023/12/29 04:44:56;;;;;;;4.83;3.73;;;;;;;7.95;100.00;95493.00;5007658;28;20187;-78
2023/12/29 04:47:22;;;;;;;3.83;3.53;;;;;;;8.13;99.50;95487.19;5011134;28;20214;-79
2023/12/29 04:49:47;;;;;;;4.43;4.03;;;;;;;8.04;99.58;95493.13;5006640;28;20200;-78
2023/12/29 04:52:13;;;;;;;3.63;3.33;;;;;;;7.98;99.74;95497.06;5009684;28;20220;-78
2023/12/29 04:54:38;;;;;;;4.37;3.93;;;;;;;8.01;100.00;95495.97;5007997;28;20192;-78
2023/12/29 04:57:03;;;;;;;3.57;3.27;;;;;;;8.09;99.53;95486.59;5012430;28;20216;-77
2023/12/29 04:59:29;;;;;;;4.03;3.40;;;;;;;8.11;99.30;95484.69;5006395;28;20183;-79
2023/12/29 05:01:54;;;;;;;4.67;3.70;;;;;;;8.06;99.75;95491.25;4990433;28;20184;-78
2023/12/29 05:04:19;;;;;;;3.57;3.27;;;;;;;8.13;99.91;95490.56;5006625;28;20206;-77
2023/12/29 05:06:45;;;;;;;3.97;3.30;;;;;;;8.02;100.00;95495.84;5010680;28;20235;-77
2023/12/29 05:09:10;;;;;;;4.13;3.30;;;;;;;7.99;100.00;95497.88;4991376;28;20180;-78
2023/12/29 05:11:36;;;;;;;4.07;3.67;;;;;;;8.05;100.00;95495.59;5006880;28;20184;-78
2023/12/29 05:14:01;;;;;;;6.90;3.40;;;;;;;8.07;100.00;95503.22;5007124;28;20187;-77
2023/12/29 05:16:27;;;;;;;4.03;3.10;;;;;;;7.93;100.00;95496.63;4991584;28;20210;-78
2023/12/29 05:18:52;;;;;;;3.27;2.97;;;;;;;8.11;99.98;95501.97;5007006;28;20192;-77
2023/12/29 05:21:18;;;;;;;3.97;3.17;;;;;;;8.30;99.34;95499.41;5011438;28;20198;-77
2023/12/29 05:23:47;;;;;;;3.83;3.30;;;;;;;8.09;100.00;95498.72;4989992;28;20223;-78
2023/12/29 05:26:14;;;;;;;3.23;2.93;;;;;;;8.28;99.74;95498.75;4991398;28;20207;-78
2023/12/29 05:28:39;;;;;;;3.43;3.10;;;;;;;8.24;100.00;95505.97;5005765;28;20196;-78
2023/12/29 05:31:05;;;;;;;2.93;2.63;;;;;;;8.38;98.76;95503.97;4993125;28;20302;-78
2023/12/29 05:33:31;;;;;;;3.33;3.03;;;;;;;8.45;98.17;95508.47;5009574;28;20192;-78
2023/12/29 05:35:56;;;;;;;2.57;2.37;;;;;;;8.43;98.59;95501.78;5005851;28;20234;-78
2023/12/29 05:38:21;;;;;;;5.37;3.10;;;;;;;8.50;98.00;95506.28;5006813;28;20632;-79
2023/12/29 05:40:47;;;;;;;3.50;2.70;;;;;;;8.48;98.11;95513.38;5006332;28;20199;-77
2023/12/29 05:43:12;;;;;;;3.43;2.57;;;;;;;8.27;99.83;95504.06;4989795;28;20214;-78
2023/12/29 05:45:38;;;;;;;3.13;2.60;;;;;;;8.46;99.10;95519.63;5003955;28;20184;-79
2023/12/29 05:48:03;;;;;;;3.17;2.50;;;;;;;8.41;99.05;95517.47;4991422;28;20215;-79
2023/12/29 05:50:29;;;;;;;5.17;2.80;;;;;;;8.42;99.44;95515.69;5007676;28;20231;-79
2023/12/29 05:52:54;;;;;;;2.40;2.20;;;;;;;8.50;98.75;95511.47;5007716;28;20188;-79
2023/12/29 05:55:19;;;;;;;3.30;2.37;;;;;;;8.52;98.84;95514.75;5007271;28;20191;-77
2023/12/29 05:57:45;;;;;;;2.10;1.90;;;;;;;8.29;100.00;95505.53;4991948;28;20212;-78
2023/12/29 06:00:14;;;;;;;1.70;1.50;;;;;;;8.33;99.97;95509.53;4990373;28;20214;-77
2023/12/29 06:02:43;;;;;;;1.80;1.70;;;;;;;8.44;99.15;95506.84;5005143;28;20183;-78
2023/12/29 06:05:12;;;;;;;1.77;1.67;;;;;;;8.41;99.27;95506.28;5007163;28;20252;-77
2023/12/29 06:07:37;;;;;;;1.73;1.63;;;;;;;8.47;98.09;95508.31;5005872;28;20308;-79
2023/12/29 06:10:03;;;;;;;1.63;1.53;;;;;;;8.30;99.02;95511.53;4990026;28;20204;-78
2023/12/29 06:12:28;;;;;;;1.60;1.50;;;;;;;8.23;99.31;95517.28;4990815;28;20184;-78
2023/12/29 06:14:54;;;;;;;1.60;1.50;;;;;;;8.32;98.46;95509.66;5003962;28;20211;-77
2023/12/29 06:17:19;;;;;;;1.40;1.30;;;;;;;8.36;97.84;95509.28;5007571;28;20414;-78
2023/12/29 06:19:44;;;;;;;3.43;1.00;;;;;;;8.28;97.87;95503.91;4987841;28;20188;-78
2023/12/29 06:22:11;;;;;;;1.20;1.10;;;;;;;8.49;96.42;95502.06;4994485;28;20199;-77
2023/12/29 06:24:40;;;;;;;0.90;0.90;;;;;;;8.65;96.06;95508.47;5003971;28;20190;-79
2023/12/29 06:27:08;;;;;;;1.60;1.23;;;;;;;8.80;94.47;95514.88;5006076;28;20258;-77
2023/12/29 06:29:33;;;;;;;1.60;1.50;;;;;;;8.68;95.03;95509.03;5002571;28;20207;-78
2023/12/29 06:31:59;;;;;;;3.13;1.20;;;;;;;8.74;94.63;95505.03;4989935;28;20219;-78
2023/12/29 06:34:24;;;;;;;1.30;1.20;;;;;;;8.66;94.60;95500.59;5005774;28;20187;-77
2023/12/29 06:36:50;;;;;;;1.63;1.40;;;;;;;8.68;94.44;95501.25;4988093;28;20350;-78
2023/12/29 06:39:15;;;;;;;0.93;0.83;;;;;;;8.65;93.75;95506.69;5005248;28;20214;-78
2023/12/29 06:41:40;;;;;;;0.90;0.90;;;;;;;8.67;94.06;95496.22;4986378;28;20192;-78
2023/12/29 06:44:06;;;;;;;0.90;0.90;;;;;;;8.79;93.07;95493.34;4987664;28;20250;-79
2023/12/29 06:46:31;;;;;;;0.80;0.80;;;;;;;8.75;93.59;95492.00;5006915;28;20752;-77
2023/12/29 06:48:56;;;;;;;0.83;0.60;;;;;;;8.51;93.56;95492.41;5003981;28;20183;-77
2023/12/29 06:51:23;;;;;;;1.23;1.13;;;;;;;8.77;92.72;95484.91;5005068;28;20251;-78
2023/12/29 06:53:49;;;;;;;0.80;0.80;;;;;;;8.83;92.98;95498.22;5003609;28;20183;-78
2023/12/29 06:56:18;;;;;;;0.90;0.90;;;;;;;8.75;93.59;95489.41;4991838;28;20217;-77
2023/12/29 06:58:43;;;;;;;0.70;0.70;;;;;;;8.75;93.44;95488.59;5004530;28;20190;-78
2023/12/29 07:01:09;;;;;;;0.80;0.80;;;;;;;8.89;92.14;95485.56;4988159;28;20187;-78
2023/12/29 07:03:34;;;;;;;1.20;1.10;;;;;;;8.91;92.18;95482.81;5003800;28;20264;-78
2023/12/29 07:06:01;;;;;;;1.27;1.17;;;;;;;8.94;92.29;95492.91;4989943;28;20223;-79
2023/12/29 07:08:26;;;;;;;0.90;0.90;;;;;;;8.94;92.02;95485.97;5005157;28;20187;-79
2023/12/29 07:10:52;;;;;;;1.20;1.10;;;;;;;8.98;91.83;95482.13;4986318;28;20208;-77
2023/12/29 07:13:17;;;;;;;1.07;1.07;;;;;;;9.05;91.39;95490.16;5003613;28;20183;-77
2023/12/29 07:15:42;;;;;;;1.33;1.23;;;;;;;8.87;92.44;95486.66;4988533;28;20192;-78
2023/12/29 07:18:08;;;;;;;0.90;0.90;;;;;;;8.97;92.10;95496.03;5005280;28;20689;-79
2023/12/29 07:20:33;;;;;;;1.00;0.90;;;;;;;8.85;92.59;95481.63;5006017;28;20270;-78
2023/12/29 07:23:00;;;;;;;0.83;0.83;;;;;;;8.85;92.73;95488.56;5008572;28;20187;-78
2023/12/29 07:25:25;;;;;;;0.80;0.80;;;;;;;8.88;92.48;95480.50;4999806;28;20784;-78
2023/12/29 07:27:50;;;;;;;1.20;1.10;;;;;;;8.90;92.68;95491.53;5002345;28;20239;-79
2023/12/29 07:30:16;;;;;;;1.00;0.90;;;;;;;8.89;92.57;95488.16;4989126;28;20206;-78
2023/12/29 07:32:42;;;;;;;1.20;1.10;;;;;;;8.69;93.78;95478.78;4986409;28;20187;-78
2023/12/29 07:35:07;;;;;;;0.90;0.90;;;;;;;8.66;93.36;95489.41;5003984;28;20184;-78
2023/12/29 07:37:33;;;;;;;0.83;0.83;;;;;;;8.81;93.26;95482.84;4987661;28;20808;-78
2023/12/29 07:39:58;;;;;;;1.53;1.00;;;;;;;8.84;93.01;95484.34;4984344;28;20199;-78
2023/12/29 07:42:23;;;;;;;1.00;0.90;;;;;;;8.90;92.85;95487.19;5005006;28;20199;-78
2023/12/29 07:44:49;;;;;;;1.20;1.10;;;;;;;9.11;91.65;95484.44;4985950;28;20589;-79
2023/12/29 07:47:14;;;;;;;0.90;0.90;;;;;;;8.86;93.63;95485.03;5005168;28;20274;-78
2023/12/29 07:49:41;;;;;;;1.03;0.77;;;;;;;8.90;93.22;95488.97;4987025;28;20295;-77
2023/12/29 07:52:07;;;;;;;0.90;0.70;;;;;;;8.72;94.42;95487.06;5005693;28;20238;-79
2023/12/29 07:54:32;;;;;;;0.97;0.90;;;;;;;8.84;93.70;95481.75;4984502;28;20191;-77
2023/12/29 07:56:57;;;;;;;1.10;0.90;;;;;;;9.01;92.78;95488.78;4992806;28;20211;-77
2023/12/29 07:59:23;;;;;;;0.80;0.80;;;;;;;8.89;93.68;95495.91;5006327;28;20188;-77
2023/12/29 08:01:48;;;;;;;1.00;0.90;;;;;;;9.05;92.44;95495.34;4988106;28;20183;-77
2023/12/29 08:04:13;;;;;;;0.93;0.93;;;;;;;8.70;94.05;95498.53;5008305;28;20238;-78
2023/12/29 08:06:39;;;;;;;1.70;0.80;;;;;;;8.78;94.36;95499.47;4995808;28;20294;-78
2023/12/29 08:09:04;;;;;;;1.13;1.03;;;;;;;8.98;92.43;95504.63;5006746;28;20191;-77
2023/12/29 08:11:29;;;;;;;0.93;0.83;;;;;;;9.07;92.05;95514.16;5005485;28;20219;-78
2023/12/29 08:13:55;;;;;;;1.27;1.00;;;;;;;9.08;91.75;95500.25;4991691;28;20221;-77
2023/12/29 08:16:20;;;;;;;0.90;0.90;;;;;;;9.05;92.00;95508.28;5009761;28;20253;-78
2023/12/29 08:18:49;;;;;;;1.30;1.20;;;;;;;9.00;92.29;95503.53;5000554;28;20194;-79
2023/12/29 08:21:19;;;;;;;0.90;0.90;;;;;;;8.94;91.58;95513.63;5001893;28;20190;-79
2023/12/29 08:23:45;;;;;;;1.10;0.90;;;;;;;9.02;91.10;95518.94;4998347;28;20278;-78
2023/12/29 08:26:11;;;;;;;1.30;1.20;;;;;;;9.38;89.43;95512.19;5000979;28;20673;-80
2023/12/29 08:28:36;;;;;;;1.00;0.90;;;;;;;9.28;89.11;95508.81;4982195;28;20190;-79
2023/12/29 08:31:01;;;;;;;1.67;1.50;;;;;;;9.33;88.54;95520.38;5002447;28;20211;-79
2023/12/29 08:33:27;;;;;;;2.27;1.93;;;;;;;9.44;87.89;95519.38;5002462;28;20207;-79
2023/12/29 08:35:52;;;;;;;5.40;2.93;;;;;;;9.48;87.13;95517.34;4982377;28;20599;-78
2023/12/29 08:38:17;;;;;;;0.90;0.90;;;;;;;9.51;86.39;95517.84;4998593;28;20269;-78
2023/12/29 08:40:43;;;;;;;0.97;0.97;;;;;;;9.47;87.12;95520.88;4995677;28;20199;-79
2023/12/29 08:43:08;;;;;;;2.17;1.50;;;;;;;9.41;87.52;95518.84;5002552;28;20263;-79
2023/12/29 08:45:34;;;;;;;2.20;1.63;;;;;;;9.45;87.84;95513.22;4999839;28;20202;-79
2023/12/29 08:47:59;;;;;;;2.47;1.13;;;;;;;9.32;88.56;95523.91;5004169;28;20216;-80
2023/12/29 08:50:24;;;;;;;2.00;1.87;;;;;;;9.45;88.03;95522.78;4986061;28;20218;-79
2023/12/29 08:52:50;;;;;;;1.00;0.90;;;;;;;9.10;89.25;95521.66;5001524;28;20862;-80
2023/12/29 08:55:15;;;;;;;1.03;1.03;;;;;;;9.31;88.28;95527.47;5003712;28;20194;-79
2023/12/29 08:57:41;;;;;;;0.90;0.90;;;;;;;9.51;88.07;95519.63;5004694;28;20211;-80
2023/12/29 09:00:09;;;;;;;0.77;0.70;;;;;;;9.28;88.83;95527.75;5004208;28;20255;-79
2023/12/29 09:02:34;;;;;;;1.43;1.10;;;;;;;9.32;87.91;95528.28;4984429;28;20187;-80
2023/12/29 09:05:00;;;;;;;0.80;0.80;;;;;;;9.39;87.22;95531.97;4997507;28;20258;-79
2023/12/29 09:07:27;;;;;;;0.70;0.50;;;;;;;9.51;85.74;95525.63;5001570;28;20227;-79
2023/12/29 09:09:53;;;;;;;1.63;1.53;;;;;;;9.74;85.01;95525.28;4980518;28;20331;-80
2023/12/29 09:12:18;;;;;;;1.23;1.13;;;;;;;9.56;85.66;95530.41;4997073;28;20750;-80
2023/12/29 09:14:44;;;;;;;0.90;0.90;;;;;;;9.32;85.38;95531.69;4995616;28;20301;-79
2023/12/29 09:17:09;;;;;;;1.47;1.03;;;;;;;9.46;85.66;95540.00;4999983;28;20207;-78
2023/12/29 09:19:35;;;;;;;3.00;2.43;;;;;;;9.72;85.31;95530.63;4978410;28;20188;-80
2023/12/29 09:22:00;;;;;;;2.90;1.70;;;;;;;9.70;86.63;95542.91;4979812;28;20195;-79
2023/12/29 09:24:26;;;;;;;1.90;1.50;;;;;;;9.60;87.27;95536.94;4996794;28;20187;-79
2023/12/29 09:26:52;;;;;;;1.47;1.37;;;;;;;9.73;86.61;95534.84;4983179;28;20298;-79
2023/12/29 09:29:17;;;;;;;2.07;1.00;;;;;;;9.70;87.17;95542.91;4995632;28;20203;-79
2023/12/29 09:31:43;;;;;;;1.07;1.00;;;;;;;9.40;88.07;95545.72;4986337;28;20199;-80
2023/12/29 09:34:08;;;;;;;0.83;0.77;;;;;;;9.44;88.70;95554.84;5001997;28;20207;-79
2023/12/29 09:36:34;;;;;;;0.93;0.90;;;;;;;9.36;89.07;95551.22;4995021;28;20295;-80
2023/12/29 09:38:59;;;;;;;0.97;0.93;;;;;;;9.55;88.43;95554.69;4980267;28;20678;-81
2023/12/29 09:41:25;;;;;;;0.90;0.90;;;;;;;9.54;89.73;95563.41;5000268;28;20199;-79
2023/12/29 09:43:51;;;;;;;2.77;1.30;;;;;;;9.58;88.93;95564.78;4981555;28;20196;-80
2023/12/29 09:46:18;;;;;;;0.80;0.80;;;;;;;9.39;90.29;95564.84;4995387;28;20202;-78
2023/12/29 09:48:45;;;;;;;1.63;0.97;;;;;;;9.59;89.76;95559.44;4981562;28;20557;-80
2023/12/29 09:51:11;;;;;;;2.20;2.00;;;;;;;9.52;89.70;95567.94;4998340;28;20204;-78
2023/12/29 09:53:37;;;;;;;1.47;1.37;;;;;;;9.65;89.86;95565.84;4996368;28;20192;-78
2023/12/29 09:56:03;;;;;;;1.13;0.93;;;;;;;9.57;90.04;95560.56;4998951;28;20183;-80
2023/12/29 09:58:29;;;;;;;1.30;0.90;;;;;;;9.54;89.89;95558.22;4997860;28;20671;-79
2023/12/29 10:00:54;;;;;;;1.77;1.30;;;;;;;9.59;90.18;95563.81;4979919;28;20183;-78
2023/12/29 10:03:19;;;;;;;1.33;1.00;;;;;;;9.68;89.58;95557.78;4979598;28;20198;-79
2023/12/29 10:05:50;;;;;;;1.13;1.00;;;;;;;9.80;88.16;95559.22;4981522;28;20191;-79
2023/12/29 10:08:16;;;;;;;1.37;0.90;;;;;;;9.75;87.91;95552.84;4982001;28;20207;-79
2023/12/29 10:10:42;;;;;;;1.30;0.93;;;;;;;9.72;85.87;95555.72;4992963;28;20219;-80
2023/12/29 10:13:09;;;;;;;1.17;1.07;;;;;;;9.92;85.22;95545.13;4981577;28;20191;-80
2023/12/29 10:15:42;;;;;;;0.73;0.73;;;;;;;9.78;85.63;95544.78;4977779;28;20184;-80
2023/12/29 10:18:23;;;;;;;0.70;0.70;;;;;;;10.26;83.36;95548.97;4980959;28;20208;-79
2023/12/29 10:21:08;;;;;;;0.87;0.87;;;;;;;10.18;82.57;95540.09;4995620;28;20218;-78
2023/12/29 10:23:40;;;;;;;0.80;0.70;;;;;;;10.44;81.66;95547.22;4980751;28;20204;-79
2023/12/29 10:26:07;;;;;;;0.97;0.87;;;;;;;10.78;80.98;95550.81;4979316;28;20199;-79
2023/12/29 10:28:32;;;;;;;0.60;0.60;;;;;;;10.47;81.50;95529.56;4978711;28;20560;-79
2023/12/29 10:30:58;;;;;;;1.63;1.17;;;;;;;10.84;79.92;95546.78;4993992;28;20226;-79
2023/12/29 10:33:26;;;;;;;0.90;0.90;;;;;;;10.66;79.91;95533.78;4999873;28;20282;-79
2023/12/29 10:36:07;;;;;;;1.10;0.80;;;;;;;10.88;78.12;95537.72;4994588;28;20198;-80
2023/12/29 10:38:32;;;;;;;3.53;3.33;;;;;;;11.02;77.67;95520.78;4974734;28;20559;-79
2023/12/29 10:41:14;;;;;;;2.63;2.43;;;;;;;10.91;77.34;95537.41;4993656;28;20184;-79
2023/12/29 10:43:41;;;;;;;1.73;1.40;;;;;;;11.29;75.78;95527.63;4997962;28;20214;-78
2023/12/29 10:46:10;;;;;;;1.50;1.40;;;;;;;11.10;75.22;95526.03;4995168;28;20192;-78
2023/12/29 10:48:36;;;;;;;0.80;0.80;;;;;;;11.11;74.72;95522.47;4982096;28;20188;-79
2023/12/29 10:51:03;;;;;;;1.17;0.80;;;;;;;10.64;74.37;95516.72;4995656;28;20752;-78
2023/12/29 10:53:35;;;;;;;1.43;1.33;;;;;;;10.81;74.42;95512.50;4996195;28;20731;-79
2023/12/29 10:56:01;;;;;;;0.83;0.80;;;;;;;10.28;74.93;95508.09;5008736;28;20277;-78
2023/12/29 10:58:29;;;;;;;1.87;1.10;;;;;;;10.90;74.48;95506.41;4999136;28;20211;-79
2023/12/29 11:00:57;;;;;;;1.20;1.10;;;;;;;10.68;74.73;95505.06;4992436;28;20227;-79
2023/12/29 11:03:23;;;;;;;1.00;1.00;;;;;;;10.86;73.00;95499.84;4980612;28;20678;-79
2023/12/29 11:05:49;;;;;;;1.47;1.23;;;;;;;10.74;73.72;95499.28;4997954;28;20279;-77
2023/12/29 11:08:16;;;;;;;2.20;1.00;;;;;;;10.88;74.05;95501.38;4984795;28;20222;-78
2023/12/29 11:10:43;;;;;;;1.30;0.90;;;;;;;11.11;73.29;95513.84;4981468;28;20231;-78
2023/12/29 11:13:16;;;;;;;2.17;1.93;;;;;;;11.10;72.52;95496.63;5001053;28;20218;-78
2023/12/29 11:15:45;;;;;;;1.70;1.60;;;;;;;10.85;73.05;95509.44;4981871;28;20249;-77
2023/12/29 11:18:17;;;;;;;2.03;1.50;;;;;;;10.72;71.90;95494.25;5002451;28;20207;-78
2023/12/29 11:20:44;;;;;;;1.93;1.30;;;;;;;10.63;71.27;95489.94;4980715;28;20561;-78
2023/12/29 11:23:13;;;;;;;1.77;1.53;;;;;;;10.21;72.86;95494.88;5004755;28;20632;-77
2023/12/29 11:25:38;;;;;;;3.00;2.00;;;;;;;10.85;71.94;95486.06;4997698;28;20188;-78
2023/12/29 11:28:06;;;;;;;1.40;1.20;;;;;;;10.70;72.14;95484.97;4999800;28;20211;-78
2023/12/29 11:30:31;;;;;;;2.23;1.07;;;;;;;10.94;71.40;95481.75;4977834;28;20207;-77
2023/12/29 11:33:04;;;;;;;1.40;0.93;;;;;;;11.00;71.23;95487.16;4984766;28;20219;-78
2023/12/29 11:35:38;;;;;;;1.30;1.20;;;;;;;11.31;70.88;95482.34;4979570;28;20188;-77
2023/12/29 11:38:26;;;;;;;0.90;0.90;;;;;;;11.08;70.12;95483.81;4996285;28;20202;-78